createdAt,value
2022-09-02T00:00:12.168Z,53.01
2022-09-02T00:01:10.684Z,55.59
2022-09-02T00:02:10.802Z,56.40
2022-09-02T00:03:10.830Z,57.52
2022-09-02T00:04:10.651Z,57.85
2022-09-02T00:05:10.642Z,57.36
2022-09-02T00:06:10.673Z,55.59
2022-09-02T00:07:10.621Z,59.46
2022-09-02T00:08:10.613Z,60.59
2022-09-02T00:09:10.596Z,57.20
2022-09-02T00:10:11.594Z,56.40
2022-09-02T00:11:10.620Z,59.94
2022-09-02T00:12:10.573Z,58.49
2022-09-02T00:13:10.567Z,56.88
2022-09-02T00:14:10.549Z,59.30
2022-09-02T00:15:10.544Z,59.94
2022-09-02T00:16:10.564Z,60.59
2022-09-02T00:17:10.551Z,60.26
2022-09-02T00:18:15.158Z,54.14
2022-09-02T00:19:11.528Z,58.65
2022-09-02T00:20:10.499Z,60.59
2022-09-02T00:21:10.509Z,58.97
2022-09-02T00:22:10.510Z,55.43
2022-09-02T00:23:10.468Z,58.17
2022-09-02T00:24:10.458Z,57.85
2022-09-02T00:25:10.457Z,54.79
2022-09-02T00:26:10.441Z,51.56
2022-09-02T00:27:10.434Z,60.10
2022-09-02T00:28:10.453Z,60.26
2022-09-02T00:29:10.416Z,58.81
2022-09-02T00:30:10.401Z,59.30
2022-09-02T00:31:10.385Z,58.97
2022-09-02T00:32:10.447Z,58.01
2022-09-02T00:33:10.404Z,59.62
2022-09-02T00:34:10.363Z,59.14
2022-09-02T00:35:10.351Z,57.85
2022-09-02T00:36:10.344Z,58.33
2022-09-02T00:37:10.334Z,58.33
2022-09-02T00:38:10.324Z,63.33
2022-09-02T00:39:10.343Z,55.75
2022-09-02T00:40:10.368Z,56.40
2022-09-02T00:41:10.291Z,54.30
2022-09-02T00:42:10.282Z,60.26
2022-09-02T00:43:10.268Z,58.81
2022-09-02T00:44:10.296Z,61.23
2022-09-02T00:45:10.251Z,61.39
2022-09-02T00:46:10.288Z,57.20
2022-09-02T00:47:10.235Z,61.71
2022-09-02T00:48:10.222Z,60.91
2022-09-02T00:49:10.217Z,62.20
2022-09-02T00:50:10.279Z,57.85
2022-09-02T00:51:10.195Z,57.69
2022-09-02T00:52:10.187Z,59.14
2022-09-02T00:53:10.171Z,51.56
2022-09-02T00:54:10.162Z,58.33
2022-09-02T00:55:10.195Z,58.01
2022-09-02T00:56:10.142Z,58.65
2022-09-02T00:57:10.133Z,61.07
2022-09-02T00:58:10.122Z,58.97
2022-09-02T00:59:10.112Z,60.42
2022-09-02T01:00:10.108Z,57.52
2022-09-02T01:01:10.191Z,56.07
2022-09-02T01:02:10.205Z,59.30
2022-09-02T01:03:10.083Z,58.33
2022-09-02T01:04:10.068Z,56.72
2022-09-02T01:05:10.055Z,54.79
2022-09-02T01:06:10.076Z,56.72
2022-09-02T01:07:10.037Z,59.94
2022-09-02T01:08:10.024Z,58.49
2022-09-02T01:09:10.017Z,56.88
2022-09-02T01:10:10.005Z,59.14
2022-09-02T01:11:09.997Z,60.26
2022-09-02T01:12:10.032Z,57.85
2022-09-02T01:13:09.976Z,58.49
2022-09-02T01:14:09.963Z,59.62
2022-09-02T01:15:09.962Z,64.13
2022-09-02T01:16:09.999Z,58.81
2022-09-02T01:17:09.961Z,60.75
2022-09-02T01:18:09.933Z,64.45
2022-09-02T01:19:09.936Z,59.30
2022-09-02T01:20:09.913Z,59.14
2022-09-02T01:21:09.900Z,58.81
2022-09-02T01:22:09.897Z,59.14
2022-09-02T01:23:09.911Z,59.46
2022-09-02T01:24:09.872Z,58.49
2022-09-02T01:25:09.870Z,59.46
2022-09-02T01:26:09.857Z,53.17
2022-09-02T01:27:09.847Z,52.53
2022-09-02T01:28:09.871Z,60.59
2022-09-02T01:29:09.823Z,60.91
2022-09-02T01:30:09.821Z,57.69
2022-09-02T01:31:09.813Z,61.55
2022-09-02T01:32:09.797Z,58.33
2022-09-02T01:33:09.785Z,50.60
2022-09-02T01:34:09.811Z,59.94
2022-09-02T01:35:09.762Z,59.14
2022-09-02T01:36:10.770Z,57.52
2022-09-02T01:37:09.750Z,61.23
2022-09-02T01:38:09.740Z,59.94
2022-09-02T01:39:09.764Z,59.62
2022-09-02T01:40:09.771Z,58.33
2022-09-02T01:41:09.706Z,53.66
2022-09-02T01:42:10.702Z,60.75
2022-09-02T01:43:09.692Z,59.14
2022-09-02T01:44:09.693Z,59.62
2022-09-02T01:45:09.701Z,58.97
2022-09-02T01:46:09.665Z,59.14
2022-09-02T01:47:09.655Z,56.40
2022-09-02T01:48:09.647Z,52.69
2022-09-02T01:49:09.633Z,58.01
2022-09-02T01:50:09.694Z,59.62
2022-09-02T01:51:09.614Z,54.95
2022-09-02T01:52:09.648Z,56.88
2022-09-02T01:53:09.582Z,62.68
2022-09-02T01:54:10.582Z,58.81
2022-09-02T01:55:09.572Z,52.69
2022-09-02T01:56:09.595Z,50.76
2022-09-02T01:57:09.550Z,59.30
2022-09-02T01:58:09.544Z,58.97
2022-09-02T01:59:09.536Z,56.56
2022-09-02T02:00:09.524Z,60.91
2022-09-02T02:01:09.610Z,61.23
2022-09-02T02:02:09.541Z,59.30
2022-09-02T02:03:09.495Z,62.52
2022-09-02T02:04:13.305Z,59.94
2022-09-02T02:05:10.475Z,60.91
2022-09-02T02:06:09.462Z,60.91
2022-09-02T02:07:09.485Z,59.62
2022-09-02T02:08:09.444Z,62.52
2022-09-02T02:09:09.437Z,61.23
2022-09-02T02:10:09.452Z,58.97
2022-09-02T02:11:09.410Z,57.85
2022-09-02T02:12:09.433Z,59.94
2022-09-02T02:13:09.406Z,59.14
2022-09-02T02:14:09.386Z,58.65
2022-09-02T02:15:09.377Z,64.61
2022-09-02T02:16:09.446Z,59.30
2022-09-02T02:17:09.351Z,60.91
2022-09-02T02:18:09.376Z,58.33
2022-09-02T02:19:09.337Z,57.85
2022-09-02T02:20:09.330Z,58.97
2022-09-02T02:21:09.329Z,60.75
2022-09-02T02:22:09.309Z,60.10
2022-09-02T02:23:09.328Z,61.71
2022-09-02T02:24:09.288Z,62.04
2022-09-02T02:25:09.278Z,59.14
2022-09-02T02:26:09.270Z,59.62
2022-09-02T02:27:09.259Z,61.07
2022-09-02T02:28:09.244Z,60.59
2022-09-02T02:29:09.267Z,59.94
2022-09-02T02:30:09.252Z,58.65
2022-09-02T02:31:09.249Z,58.97
2022-09-02T02:32:09.210Z,60.42
2022-09-02T02:33:09.199Z,59.94
2022-09-02T02:34:09.219Z,63.00
2022-09-02T02:35:09.181Z,58.17
2022-09-02T02:36:09.167Z,60.10
2022-09-02T02:37:09.163Z,60.91
2022-09-02T02:38:09.152Z,62.84
2022-09-02T02:39:09.143Z,57.36
2022-09-02T02:40:09.182Z,59.14
2022-09-02T02:41:09.120Z,65.42
2022-09-02T02:42:09.118Z,61.07
2022-09-02T02:43:09.099Z,61.39
2022-09-02T02:44:09.096Z,62.04
2022-09-02T02:45:09.122Z,63.00
2022-09-02T02:46:10.100Z,62.36
2022-09-02T02:47:09.059Z,58.97
2022-09-02T02:48:09.082Z,59.46
2022-09-02T02:49:09.045Z,59.46
2022-09-02T02:50:09.034Z,60.42
2022-09-02T02:51:09.024Z,60.75
2022-09-02T02:52:09.017Z,58.17
2022-09-02T02:53:09.035Z,59.30
2022-09-02T02:54:08.995Z,58.97
2022-09-02T02:55:08.975Z,60.26
2022-09-02T02:56:09.979Z,59.94
2022-09-02T02:57:08.964Z,60.42
2022-09-02T02:58:08.951Z,62.84
2022-09-02T02:59:08.962Z,60.42
2022-09-02T03:00:08.936Z,59.30
2022-09-02T03:01:08.923Z,61.23
2022-09-02T03:02:09.007Z,60.91
2022-09-02T03:03:08.940Z,63.49
2022-09-02T03:04:08.925Z,61.07
2022-09-02T03:05:08.886Z,56.40
2022-09-02T03:06:08.875Z,59.94
2022-09-02T03:07:08.865Z,63.49
2022-09-02T03:08:08.853Z,64.13
2022-09-02T03:09:08.883Z,60.59
2022-09-02T03:10:08.838Z,59.78
2022-09-02T03:11:08.820Z,62.04
2022-09-02T03:12:08.818Z,62.52
2022-09-02T03:13:08.813Z,65.26
2022-09-02T03:14:08.798Z,60.75
2022-09-02T03:15:08.816Z,60.42
2022-09-02T03:16:08.861Z,59.78
2022-09-02T03:17:08.767Z,61.87
2022-09-02T03:18:08.760Z,61.39
2022-09-02T03:19:08.753Z,59.30
2022-09-02T03:20:08.774Z,59.46
2022-09-02T03:21:08.727Z,61.39
2022-09-02T03:22:08.717Z,60.59
2022-09-02T03:23:08.709Z,59.30
2022-09-02T03:24:08.698Z,62.04
2022-09-02T03:25:08.687Z,57.85
2022-09-02T03:26:08.693Z,59.62
2022-09-02T03:27:08.666Z,60.10
2022-09-02T03:28:08.653Z,63.00
2022-09-02T03:29:08.649Z,60.75
2022-09-02T03:30:08.636Z,58.97
2022-09-02T03:31:08.712Z,60.75
2022-09-02T03:32:08.660Z,61.71
2022-09-02T03:33:08.611Z,64.13
2022-09-02T03:34:08.600Z,65.10
2022-09-02T03:35:08.588Z,64.29
2022-09-02T03:36:08.611Z,62.52
2022-09-02T03:37:08.571Z,60.10
2022-09-02T03:38:08.560Z,62.36
2022-09-02T03:39:09.927Z,63.97
2022-09-02T03:40:08.579Z,63.49
2022-09-02T03:41:08.571Z,65.42
2022-09-02T03:42:13.335Z,60.91
2022-09-02T03:43:09.516Z,62.04
2022-09-02T03:44:08.501Z,65.42
2022-09-02T03:45:08.489Z,60.91
2022-09-02T03:46:08.554Z,63.97
2022-09-02T03:47:08.512Z,65.10
2022-09-02T03:48:08.466Z,62.52
2022-09-02T03:49:08.467Z,65.58
2022-09-02T03:50:08.443Z,63.97
2022-09-02T03:51:08.438Z,66.06
2022-09-02T03:52:08.551Z,61.55
2022-09-02T03:53:08.420Z,60.10
2022-09-02T03:54:08.408Z,59.78
2022-09-02T03:55:08.401Z,64.13
2022-09-02T03:56:08.387Z,65.58
2022-09-02T03:57:08.375Z,65.10
2022-09-02T03:58:08.781Z,63.00
2022-09-02T03:59:09.366Z,66.71
2022-09-02T04:00:08.348Z,65.10
2022-09-02T04:01:08.339Z,63.00
2022-09-02T04:02:08.426Z,62.52
2022-09-02T04:03:08.411Z,58.33
2022-09-02T04:04:08.310Z,64.94
2022-09-02T04:05:13.666Z,68.16
2022-09-02T04:06:09.289Z,64.78
2022-09-02T04:07:08.280Z,63.00
2022-09-02T04:08:08.305Z,60.59
2022-09-02T04:09:08.262Z,64.13
2022-09-02T04:10:08.253Z,60.91
2022-09-02T04:11:08.243Z,64.29
2022-09-02T04:12:08.232Z,62.84
2022-09-02T04:13:08.227Z,61.39
2022-09-02T04:14:08.259Z,60.91
2022-09-02T04:15:08.202Z,66.23
2022-09-02T04:16:08.239Z,64.78
2022-09-02T04:17:08.181Z,63.00
2022-09-02T04:18:08.173Z,67.35
2022-09-02T04:19:08.222Z,63.00
2022-09-02T04:20:08.158Z,62.20
2022-09-02T04:21:08.148Z,66.23
2022-09-02T04:22:08.127Z,63.81
2022-09-02T04:23:09.129Z,63.00
2022-09-02T04:24:08.116Z,62.04
2022-09-02T04:25:08.121Z,63.81
2022-09-02T04:26:08.098Z,65.90
2022-09-02T04:27:08.089Z,65.10
2022-09-02T04:28:08.078Z,64.13
2022-09-02T04:29:08.063Z,63.16
2022-09-02T04:30:08.082Z,65.42
2022-09-02T04:31:08.104Z,63.33
2022-09-02T04:32:08.036Z,64.29
2022-09-02T04:33:08.035Z,63.97
2022-09-02T04:34:08.015Z,67.51
2022-09-02T04:35:08.025Z,64.61
2022-09-02T04:36:08.004Z,66.71
2022-09-02T04:37:07.996Z,59.46
2022-09-02T04:38:07.981Z,64.45
2022-09-02T04:39:07.969Z,66.06
2022-09-02T04:40:08.033Z,65.74
2022-09-02T04:41:07.949Z,65.26
2022-09-02T04:42:07.941Z,64.78
2022-09-02T04:43:07.937Z,63.49
2022-09-02T04:44:07.921Z,65.74
2022-09-02T04:45:07.976Z,64.13
2022-09-02T04:46:07.947Z,65.10
2022-09-02T04:47:07.902Z,64.78
2022-09-02T04:48:07.887Z,63.00
2022-09-02T04:49:07.872Z,66.71
2022-09-02T04:50:07.871Z,65.10
2022-09-02T04:51:07.881Z,61.23
2022-09-02T04:52:07.844Z,64.78
2022-09-02T04:53:07.837Z,60.10
2022-09-02T04:54:07.826Z,60.75
2022-09-02T04:55:07.815Z,63.65
2022-09-02T04:56:07.834Z,65.90
2022-09-02T04:57:07.791Z,63.00
2022-09-02T04:58:07.781Z,64.29
2022-09-02T04:59:07.777Z,62.36
2022-09-02T05:00:07.803Z,62.84
2022-09-02T05:01:07.792Z,63.33
2022-09-02T05:02:07.897Z,59.46
2022-09-02T05:03:07.734Z,64.29
2022-09-02T05:04:07.722Z,67.51
2022-09-02T05:05:07.710Z,67.51
2022-09-02T05:06:07.708Z,64.78
2022-09-02T05:07:07.712Z,60.91
2022-09-02T05:08:07.693Z,62.68
2022-09-02T05:09:07.672Z,64.78
2022-09-02T05:10:07.663Z,66.23
2022-09-02T05:11:08.657Z,66.39
2022-09-02T05:12:07.661Z,63.81
2022-09-02T05:13:07.632Z,60.91
2022-09-02T05:14:07.621Z,68.32
2022-09-02T05:15:07.636Z,63.16
2022-09-02T05:16:07.641Z,63.81
2022-09-02T05:17:08.061Z,65.26
2022-09-02T05:18:08.584Z,65.42
2022-09-02T05:19:07.574Z,67.19
2022-09-02T05:20:07.578Z,65.74
2022-09-02T05:21:07.552Z,63.00
2022-09-02T05:22:07.605Z,63.65
2022-09-02T05:23:07.536Z,63.49
2022-09-02T05:24:07.520Z,64.78
2022-09-02T05:25:07.513Z,60.26
2022-09-02T05:26:07.504Z,65.10
2022-09-02T05:27:07.502Z,64.61
2022-09-02T05:28:07.502Z,64.13
2022-09-02T05:29:07.474Z,64.13
2022-09-02T05:30:07.471Z,66.87
2022-09-02T05:31:07.490Z,64.13
2022-09-02T05:32:07.449Z,65.26
2022-09-02T05:33:07.511Z,63.81
2022-09-02T05:34:07.425Z,60.26
2022-09-02T05:35:07.419Z,62.36
2022-09-02T05:36:07.407Z,66.39
2022-09-02T05:37:07.398Z,65.58
2022-09-02T05:38:07.504Z,64.29
2022-09-02T05:39:07.378Z,64.29
2022-09-02T05:40:07.742Z,66.87
2022-09-02T05:41:07.358Z,61.39
2022-09-02T05:42:07.352Z,59.46
2022-09-02T05:43:07.411Z,65.10
2022-09-02T05:44:07.347Z,65.90
2022-09-02T05:45:07.319Z,65.74
2022-09-02T05:46:07.378Z,67.03
2022-09-02T05:47:07.298Z,67.51
2022-09-02T05:48:07.290Z,60.26
2022-09-02T05:49:07.318Z,63.65
2022-09-02T05:50:07.788Z,63.16
2022-09-02T05:51:07.258Z,67.19
2022-09-02T05:52:07.270Z,64.29
2022-09-02T05:53:09.986Z,63.97
2022-09-02T05:54:08.256Z,67.51
2022-09-02T05:55:07.218Z,63.16
2022-09-02T05:56:07.207Z,61.23
2022-09-02T05:57:07.204Z,65.74
2022-09-02T05:58:07.178Z,62.52
2022-09-02T05:59:08.181Z,63.49
2022-09-02T06:00:07.186Z,63.97
2022-09-02T06:01:07.161Z,65.90
2022-09-02T06:02:07.324Z,64.13
2022-09-02T06:03:07.251Z,64.94
2022-09-02T06:04:07.128Z,63.16
2022-09-02T06:05:07.139Z,66.71
2022-09-02T06:06:07.122Z,66.23
2022-09-02T06:07:07.110Z,65.58
2022-09-02T06:08:07.195Z,67.19
2022-09-02T06:09:07.080Z,64.61
2022-09-02T06:10:07.102Z,64.13
2022-09-02T06:11:07.075Z,63.16
2022-09-02T06:12:07.060Z,65.26
2022-09-02T06:13:07.045Z,60.26
2022-09-02T06:14:07.041Z,62.84
2022-09-02T06:15:07.058Z,64.61
2022-09-02T06:16:07.151Z,67.51
2022-09-02T06:17:06.996Z,66.87
2022-09-02T06:18:07.066Z,64.61
2022-09-02T06:19:06.985Z,66.55
2022-09-02T06:20:06.969Z,64.61
2022-09-02T06:21:07.004Z,60.42
2022-09-02T06:22:06.960Z,65.10
2022-09-02T06:23:06.937Z,66.23
2022-09-02T06:24:06.928Z,67.03
2022-09-02T06:25:06.918Z,66.39
2022-09-02T06:26:06.967Z,67.19
2022-09-02T06:27:06.897Z,64.61
2022-09-02T06:28:07.483Z,64.29
2022-09-02T06:29:07.880Z,60.91
2022-09-02T06:30:06.871Z,62.04
2022-09-02T06:31:06.909Z,61.39
2022-09-02T06:32:06.868Z,64.29
2022-09-02T06:33:06.886Z,63.81
2022-09-02T06:34:06.830Z,66.06
2022-09-02T06:35:06.821Z,65.10
2022-09-02T06:36:06.813Z,69.13
2022-09-02T06:37:06.821Z,65.10
2022-09-02T06:38:06.790Z,62.52
2022-09-02T06:39:06.779Z,67.68
2022-09-02T06:40:06.793Z,65.90
2022-09-02T06:41:06.773Z,65.58
2022-09-02T06:42:06.797Z,65.58
2022-09-02T06:43:06.814Z,61.07
2022-09-02T06:44:07.094Z,60.42
2022-09-02T06:45:06.727Z,64.13
2022-09-02T06:46:06.756Z,65.58
2022-09-02T06:47:06.729Z,65.10
2022-09-02T06:48:07.943Z,66.87
2022-09-02T06:49:06.689Z,66.06
2022-09-02T06:50:06.712Z,65.42
2022-09-02T06:51:06.670Z,66.71
2022-09-02T06:52:06.657Z,64.13
2022-09-02T06:53:06.690Z,65.10
2022-09-02T06:54:06.627Z,63.65
2022-09-02T06:55:06.624Z,61.71
2022-09-02T06:56:06.617Z,64.61
2022-09-02T06:57:06.610Z,64.13
2022-09-02T06:58:06.633Z,63.49
2022-09-02T06:59:06.583Z,63.16
2022-09-02T07:00:06.599Z,63.49
2022-09-02T07:01:06.629Z,66.39
2022-09-02T07:02:06.785Z,63.97
2022-09-02T07:03:06.549Z,61.07
2022-09-02T07:04:06.555Z,63.16
2022-09-02T07:05:06.530Z,65.10
2022-09-02T07:06:06.523Z,60.75
2022-09-02T07:07:06.514Z,67.68
2022-09-02T07:08:06.513Z,66.39
2022-09-02T07:09:06.540Z,66.23
2022-09-02T07:10:06.521Z,62.04
2022-09-02T07:11:06.481Z,66.06
2022-09-02T07:12:06.476Z,68.48
2022-09-02T07:13:06.477Z,63.65
2022-09-02T07:14:06.466Z,66.71
2022-09-02T07:15:06.441Z,62.52
2022-09-02T07:16:06.434Z,63.49
2022-09-02T07:17:06.479Z,63.49
2022-09-02T07:18:06.413Z,62.84
2022-09-02T07:19:11.586Z,65.42
2022-09-02T07:20:08.394Z,62.04
2022-09-02T07:21:06.383Z,62.52
2022-09-02T07:22:06.374Z,66.55
2022-09-02T07:23:06.365Z,66.23
2022-09-02T07:24:06.406Z,62.84
2022-09-02T07:25:06.342Z,63.65
2022-09-02T07:26:07.333Z,65.42
2022-09-02T07:27:06.323Z,62.52
2022-09-02T07:28:06.311Z,66.87
2022-09-02T07:29:06.301Z,63.49
2022-09-02T07:30:06.308Z,62.20
2022-09-02T07:31:06.303Z,66.87
2022-09-02T07:32:06.274Z,66.87
2022-09-02T07:33:06.260Z,65.74
2022-09-02T07:34:06.250Z,66.71
2022-09-02T07:35:06.303Z,66.39
2022-09-02T07:36:06.237Z,62.04
2022-09-02T07:37:10.684Z,66.06
2022-09-02T07:38:07.215Z,63.97
2022-09-02T07:39:06.202Z,65.74
2022-09-02T07:40:06.263Z,66.06
2022-09-02T07:41:06.183Z,62.04
2022-09-02T07:42:07.671Z,60.59
2022-09-02T07:43:06.164Z,65.10
2022-09-02T07:44:06.154Z,62.36
2022-09-02T07:45:06.143Z,64.45
2022-09-02T07:46:06.226Z,64.78
2022-09-02T07:47:06.122Z,68.48
2022-09-02T07:48:06.197Z,64.45
2022-09-02T07:49:06.114Z,64.13
2022-09-02T07:50:21.987Z,65.42
2022-09-02T07:51:08.128Z,67.03
2022-09-02T07:52:06.122Z,66.55
2022-09-02T07:53:06.070Z,63.49
2022-09-02T07:54:06.058Z,67.51
2022-09-02T07:55:06.051Z,67.51
2022-09-02T07:56:06.065Z,63.97
2022-09-02T07:57:06.048Z,62.52
2022-09-02T07:58:06.049Z,64.29
2022-09-02T07:59:06.026Z,67.03
2022-09-02T08:00:06.006Z,65.10
2022-09-02T08:01:06.041Z,62.52
2022-09-02T08:02:06.070Z,60.42
2022-09-02T08:04:06.369Z,62.52
2022-09-02T08:05:05.964Z,66.71
2022-09-02T08:06:05.952Z,67.19
2022-09-02T08:07:05.987Z,64.61
2022-09-02T08:08:05.927Z,60.75
2022-09-02T08:09:05.912Z,63.49
2022-09-02T08:10:05.911Z,60.91
2022-09-02T08:11:05.914Z,62.84
2022-09-02T08:12:05.901Z,63.49
2022-09-02T08:13:05.878Z,63.16
2022-09-02T08:14:05.871Z,65.74
2022-09-02T08:15:05.856Z,63.97
2022-09-02T08:16:05.912Z,62.36
2022-09-02T08:17:05.848Z,60.10
2022-09-02T08:18:05.826Z,61.39
2022-09-02T08:19:05.818Z,61.55
2022-09-02T08:20:08.184Z,64.29
2022-09-02T08:21:06.838Z,65.90
2022-09-02T08:22:05.791Z,59.78
2022-09-02T08:23:11.350Z,61.71
2022-09-02T08:24:06.772Z,64.61
2022-09-02T08:25:05.764Z,62.52
2022-09-02T08:26:05.878Z,62.52
2022-09-02T08:27:05.758Z,62.68
2022-09-02T08:28:05.737Z,59.14
2022-09-02T08:29:05.720Z,62.52
2022-09-02T08:30:05.736Z,64.13
2022-09-02T08:31:05.701Z,62.84
2022-09-02T08:32:05.798Z,66.55
2022-09-02T08:33:05.681Z,64.94
2022-09-02T08:34:05.670Z,64.94
2022-09-02T08:35:05.669Z,62.04
2022-09-02T08:36:05.687Z,62.52
2022-09-02T08:37:05.673Z,64.61
2022-09-02T08:38:05.642Z,64.45
2022-09-02T08:39:05.648Z,63.65
2022-09-02T08:40:05.731Z,64.29
2022-09-02T08:41:05.607Z,64.94
2022-09-02T08:42:05.608Z,62.20
2022-09-02T08:43:05.601Z,65.26
2022-09-02T08:44:05.580Z,65.74
2022-09-02T08:45:05.560Z,65.10
2022-09-02T08:46:06.638Z,63.65
2022-09-02T08:47:05.543Z,64.94
2022-09-02T08:48:05.553Z,61.39
2022-09-02T08:49:05.527Z,62.52
2022-09-02T08:50:05.538Z,63.65
2022-09-02T08:51:05.511Z,67.84
2022-09-02T08:52:05.496Z,64.61
2022-09-02T08:53:05.515Z,64.61
2022-09-02T08:54:05.488Z,67.19
2022-09-02T08:55:05.470Z,63.81
2022-09-02T08:56:05.466Z,62.36
2022-09-02T08:57:05.452Z,62.52
2022-09-02T08:59:05.445Z,64.29
2022-09-02T09:00:05.432Z,67.19
2022-09-02T09:01:05.474Z,63.16
2022-09-02T09:02:05.454Z,63.33
2022-09-02T09:03:05.395Z,61.23
2022-09-02T09:04:05.403Z,62.20
2022-09-02T09:05:05.374Z,64.94
2022-09-02T09:06:05.373Z,65.90
2022-09-02T09:07:05.358Z,65.26
2022-09-02T09:08:06.063Z,63.81
2022-09-02T09:09:05.354Z,63.16
2022-09-02T09:10:05.331Z,61.55
2022-09-02T09:11:05.318Z,62.52
2022-09-02T09:12:05.311Z,62.84
2022-09-02T09:13:05.301Z,61.23
2022-09-02T09:14:05.332Z,60.42
2022-09-02T09:15:05.280Z,64.45
2022-09-02T09:16:05.319Z,65.58
2022-09-02T09:17:05.264Z,63.97
2022-09-02T09:18:05.284Z,67.84
2022-09-02T09:19:08.639Z,66.87
2022-09-02T09:20:06.237Z,65.10
2022-09-02T09:21:05.225Z,64.13
2022-09-02T09:22:05.216Z,64.61
2022-09-02T09:23:05.207Z,64.13
2022-09-02T09:24:05.193Z,63.65
2022-09-02T09:25:05.201Z,62.84
2022-09-02T09:26:05.170Z,59.62
2022-09-02T09:27:05.166Z,63.16
2022-09-02T09:28:05.153Z,64.29
2022-09-02T09:29:05.144Z,64.78
2022-09-02T09:30:05.157Z,63.65
2022-09-02T09:31:05.123Z,62.52
2022-09-02T09:32:05.118Z,65.90
2022-09-02T09:33:05.108Z,65.74
2022-09-02T09:34:05.094Z,60.75
2022-09-02T09:35:05.098Z,61.23
2022-09-02T09:36:05.077Z,63.00
2022-09-02T09:37:05.068Z,63.81
2022-09-02T09:38:05.062Z,61.07
2022-09-02T09:39:05.050Z,65.10
2022-09-02T09:40:05.092Z,64.78
2022-09-02T09:41:05.036Z,61.07
2022-09-02T09:42:05.024Z,60.10
2022-09-02T09:43:05.014Z,64.45
2022-09-02T09:44:05.003Z,64.94
2022-09-02T09:45:05.034Z,62.20
2022-09-02T09:46:05.040Z,65.90
2022-09-02T09:47:05.009Z,63.81
2022-09-02T09:48:04.962Z,64.94
2022-09-02T09:49:04.950Z,65.90
2022-09-02T09:50:04.945Z,65.42
2022-09-02T09:51:04.950Z,65.74
2022-09-02T09:52:04.928Z,64.45
2022-09-02T09:53:04.912Z,60.42
2022-09-02T09:54:04.905Z,65.42
2022-09-02T09:55:04.896Z,64.61
2022-09-02T09:56:04.904Z,61.87
2022-09-02T09:57:04.876Z,63.49
2022-09-02T09:58:04.870Z,64.45
2022-09-02T09:59:04.856Z,62.84
2022-09-02T10:00:04.853Z,64.13
2022-09-02T10:01:04.944Z,64.13
2022-09-02T10:02:04.905Z,65.74
2022-09-02T10:03:04.823Z,63.49
2022-09-02T10:04:12.188Z,64.13
2022-09-02T10:05:05.794Z,61.87
2022-09-02T10:06:04.834Z,64.61
2022-09-02T10:07:04.778Z,64.13
2022-09-02T10:08:04.772Z,61.39
2022-09-02T10:09:05.757Z,60.91
2022-09-02T10:10:04.783Z,63.33
2022-09-02T10:11:04.725Z,62.36
2022-09-02T10:12:05.754Z,63.33
2022-09-02T10:13:04.762Z,64.45
2022-09-02T10:14:04.708Z,61.87
2022-09-02T10:15:04.698Z,66.87
2022-09-02T10:16:04.736Z,62.68
2022-09-02T10:17:04.695Z,63.81
2022-09-02T10:18:04.665Z,63.16
2022-09-02T10:19:04.662Z,65.42
2022-09-02T10:20:04.981Z,62.36
2022-09-02T10:21:15.156Z,64.13
2022-09-02T10:22:06.643Z,63.16
2022-09-02T10:23:04.617Z,65.58
2022-09-02T10:24:04.607Z,65.42
2022-09-02T10:25:04.645Z,64.13
2022-09-02T10:26:04.600Z,63.16
2022-09-02T10:27:04.592Z,62.04
2022-09-02T10:28:04.564Z,66.39
2022-09-02T10:29:04.556Z,60.75
2022-09-02T10:30:04.585Z,62.52
2022-09-02T10:31:04.550Z,66.71
2022-09-02T10:32:04.569Z,67.84
2022-09-02T10:33:04.518Z,62.20
2022-09-02T10:34:04.508Z,60.59
2022-09-02T10:35:04.496Z,67.35
2022-09-02T10:36:04.487Z,65.42
2022-09-02T10:37:04.528Z,64.61
2022-09-02T10:38:04.470Z,66.06
2022-09-02T10:39:04.464Z,65.42
2022-09-02T10:40:04.641Z,66.23
2022-09-02T10:41:04.438Z,64.13
2022-09-02T10:42:04.425Z,65.90
2022-09-02T10:43:04.438Z,67.03
2022-09-02T10:44:04.429Z,66.39
2022-09-02T10:45:04.403Z,64.61
2022-09-02T10:46:04.394Z,65.10
2022-09-02T10:47:04.455Z,66.23
2022-09-02T10:48:04.442Z,62.52
2022-09-02T10:49:04.361Z,66.87
2022-09-02T10:50:04.353Z,64.78
2022-09-02T10:51:04.343Z,65.10
2022-09-02T10:52:04.334Z,64.94
2022-09-02T10:53:07.300Z,66.87
2022-09-02T10:54:05.306Z,66.23
2022-09-02T10:55:04.299Z,65.10
2022-09-02T10:56:04.294Z,64.78
2022-09-02T10:57:04.279Z,64.13
2022-09-02T10:58:04.270Z,65.58
2022-09-02T10:59:04.296Z,60.42
2022-09-02T11:00:04.251Z,65.42
2022-09-02T11:01:04.424Z,61.55
2022-09-02T11:02:04.235Z,64.78
2022-09-02T11:03:04.264Z,64.78
2022-09-02T11:04:04.340Z,65.58
2022-09-02T11:05:04.203Z,64.45
2022-09-02T11:06:04.181Z,64.61
2022-09-02T11:07:05.196Z,63.65
2022-09-02T11:08:04.175Z,67.03
2022-09-02T11:09:04.163Z,66.87
2022-09-02T11:10:04.192Z,62.20
2022-09-02T11:11:04.147Z,64.45
2022-09-02T11:12:04.130Z,62.20
2022-09-02T11:13:05.129Z,63.16
2022-09-02T11:14:04.120Z,65.42
2022-09-02T11:15:04.139Z,61.55
2022-09-02T11:16:04.176Z,63.97
2022-09-02T11:17:04.099Z,66.23
2022-09-02T11:18:04.136Z,66.39
2022-09-02T11:19:04.059Z,65.90
2022-09-02T11:20:05.091Z,65.90
2022-09-02T11:21:04.052Z,65.90
2022-09-02T11:22:04.042Z,62.68
2022-09-02T11:23:04.044Z,65.90
2022-09-02T11:24:04.027Z,64.13
2022-09-02T11:25:04.016Z,66.55
2022-09-02T11:26:04.035Z,66.55
2022-09-02T11:27:04.443Z,64.13
2022-09-02T11:28:03.986Z,62.52
2022-09-02T11:29:03.980Z,65.42
2022-09-02T11:30:03.973Z,66.23
2022-09-02T11:31:03.987Z,67.03
2022-09-02T11:32:03.959Z,62.68
2022-09-02T11:33:03.946Z,63.49
2022-09-02T11:35:03.923Z,65.90
2022-09-02T11:36:03.912Z,65.58
2022-09-02T11:37:03.937Z,64.13
2022-09-02T11:38:03.904Z,62.52
2022-09-02T11:39:03.881Z,64.45
2022-09-02T11:40:23.577Z,64.13
2022-09-02T11:42:05.941Z,64.61
2022-09-02T11:43:03.853Z,63.16
2022-09-02T11:44:03.847Z,65.90
2022-09-02T11:45:03.837Z,66.23
2022-09-02T11:46:03.887Z,64.78
2022-09-02T11:47:03.892Z,66.55
2022-09-02T11:48:03.797Z,66.23
2022-09-02T11:49:03.790Z,66.55
2022-09-02T11:50:03.775Z,63.49
2022-09-02T11:51:03.768Z,66.71
2022-09-02T11:52:03.760Z,64.94
2022-09-02T11:53:03.826Z,64.29
2022-09-02T11:54:04.787Z,65.26
2022-09-02T11:55:03.733Z,64.29
2022-09-02T11:56:03.722Z,61.55
2022-09-02T11:57:03.714Z,63.65
2022-09-02T11:58:03.730Z,64.29
2022-09-02T11:59:03.690Z,63.33
2022-09-02T12:00:03.693Z,64.29
2022-09-02T12:01:03.676Z,63.16
2022-09-02T12:02:03.664Z,65.26
2022-09-02T12:03:16.629Z,64.78
2022-09-02T12:05:05.934Z,61.71
2022-09-02T12:06:03.724Z,63.65
2022-09-02T12:07:07.859Z,64.29
2022-09-02T12:08:05.613Z,63.49
2022-09-02T12:09:03.619Z,64.13
2022-09-02T12:10:04.601Z,62.52
2022-09-02T12:11:03.586Z,63.49
2022-09-02T12:12:03.575Z,61.71
2022-09-02T12:13:03.564Z,63.00
2022-09-02T12:14:04.640Z,62.68
2022-09-02T12:15:03.575Z,62.52
2022-09-02T12:16:03.588Z,61.07
2022-09-02T12:17:03.532Z,62.68
2022-09-02T12:18:03.517Z,62.04
2022-09-02T12:19:03.511Z,65.26
2022-09-02T12:20:03.533Z,64.13
2022-09-02T12:21:03.493Z,61.87
2022-09-02T12:22:03.478Z,64.29
2022-09-02T12:23:03.480Z,63.00
2022-09-02T12:24:03.460Z,67.68
2022-09-02T12:25:03.461Z,64.13
2022-09-02T12:26:03.471Z,61.39
2022-09-02T12:27:03.453Z,62.52
2022-09-02T12:28:03.424Z,67.35
2022-09-02T12:29:03.414Z,63.65
2022-09-02T12:30:03.402Z,63.00
2022-09-02T12:31:03.465Z,62.84
2022-09-02T12:32:03.385Z,66.39
2022-09-02T12:33:03.377Z,66.55
2022-09-02T12:34:03.368Z,65.42
2022-09-02T12:35:03.358Z,62.84
2022-09-02T12:36:03.369Z,64.13
2022-09-02T12:37:03.400Z,63.81
2022-09-02T12:38:03.344Z,64.45
2022-09-02T12:39:05.847Z,64.78
2022-09-02T12:40:03.310Z,63.16
2022-09-02T12:41:03.302Z,62.52
2022-09-02T12:42:03.332Z,65.90
2022-09-02T12:43:03.299Z,65.90
2022-09-02T12:44:03.268Z,67.84
2022-09-02T12:45:03.262Z,68.00
2022-09-02T12:46:03.295Z,61.39
2022-09-02T12:47:03.246Z,62.68
2022-09-02T12:48:03.265Z,65.10
2022-09-02T12:49:03.226Z,66.87
2022-09-02T12:50:03.216Z,65.74
2022-09-02T12:51:03.226Z,65.90
2022-09-02T12:52:03.193Z,61.23
2022-09-02T12:53:03.338Z,64.61
2022-09-02T12:54:03.176Z,65.42
2022-09-02T12:55:03.170Z,63.65
2022-09-02T12:56:03.159Z,63.49
2022-09-02T12:57:03.148Z,64.61